createdAt,value
2023-03-01T00:01:58.432Z,101374.47
2023-03-01T00:04:29.018Z,101371.00
2023-03-01T00:06:57.100Z,101365.69
2023-03-01T00:09:26.662Z,101357.78
2023-03-01T00:11:55.887Z,101355.16
2023-03-01T00:14:25.288Z,101361.34
2023-03-01T00:16:53.639Z,101349.97
2023-03-01T00:19:23.692Z,101350.91
2023-03-01T00:21:52.211Z,101344.78
2023-03-01T00:24:21.440Z,101350.91
2023-03-01T00:26:49.995Z,101349.13
2023-03-01T00:29:18.717Z,101342.13
2023-03-01T00:31:46.996Z,101333.41
2023-03-01T00:34:15.652Z,101333.38
2023-03-01T00:36:44.707Z,101344.88
2023-03-01T00:39:23.902Z,101339.66
2023-03-01T00:42:00.130Z,101336.97
2023-03-01T00:44:29.583Z,101344.88
2023-03-01T00:46:57.692Z,101341.34
2023-03-01T00:49:29.058Z,101344.88
2023-03-01T00:51:57.248Z,101347.47
2023-03-01T00:54:25.659Z,101339.53
2023-03-01T00:56:53.644Z,101330.78
2023-03-01T00:59:21.770Z,101323.78
2023-03-01T01:01:50.797Z,101325.53
2023-03-01T01:04:19.053Z,101321.19
2023-03-01T01:06:48.299Z,101310.63
2023-03-01T01:09:21.723Z,101319.50
2023-03-01T01:11:51.852Z,101316.81
2023-03-01T01:14:20.845Z,101315.94
2023-03-01T01:16:49.261Z,101309.78
2023-03-01T01:19:23.269Z,101308.88
2023-03-01T01:21:52.808Z,101305.41
2023-03-01T01:24:20.780Z,101305.38
2023-03-01T01:26:49.211Z,101303.66
2023-03-01T01:29:17.804Z,101300.16
2023-03-01T01:31:46.779Z,101306.31
2023-03-01T01:34:18.205Z,101308.94
2023-03-01T01:36:52.601Z,101309.88
2023-03-01T01:39:22.190Z,101314.25
2023-03-01T01:41:50.468Z,101310.75
2023-03-01T01:44:27.656Z,101316.00
2023-03-01T01:47:05.104Z,101319.50
2023-03-01T01:49:49.082Z,101308.91
2023-03-01T01:52:26.802Z,101307.09
2023-03-01T01:54:59.756Z,101305.34
2023-03-01T01:58:03.744Z,101297.47
2023-03-01T02:00:33.379Z,101303.59
2023-03-01T02:03:05.563Z,101292.22
2023-03-01T02:05:47.229Z,101294.91
2023-03-01T02:08:21.255Z,101300.19
2023-03-01T02:10:51.568Z,101290.53
2023-03-01T02:13:21.441Z,101291.38
2023-03-01T02:15:50.836Z,101288.78
2023-03-01T02:18:23.470Z,101291.38
2023-03-01T02:21:06.860Z,101280.00
2023-03-01T02:23:35.711Z,101272.97
2023-03-01T02:26:46.656Z,101270.31
2023-03-01T02:29:14.941Z,101273.81
2023-03-01T02:31:43.641Z,101280.03
2023-03-01T02:34:23.375Z,101276.59
2023-03-01T02:37:05.946Z,101281.00
2023-03-01T02:39:49.645Z,101275.75
2023-03-01T02:42:27.279Z,101274.88
2023-03-01T02:44:57.861Z,101263.50
2023-03-01T02:47:26.185Z,101262.63
2023-03-01T02:49:57.730Z,101259.09
2023-03-01T02:52:54.323Z,101256.44
2023-03-01T02:55:26.232Z,101245.94
2023-03-01T02:57:55.364Z,101242.47
2023-03-01T03:00:28.708Z,101238.06
2023-03-01T03:02:59.574Z,101239.84
2023-03-01T03:05:30.539Z,101231.06
2023-03-01T03:08:02.699Z,101225.84
2023-03-01T03:10:33.530Z,101225.00
2023-03-01T03:13:08.492Z,101215.41
2023-03-01T03:15:37.457Z,101224.22
2023-03-01T03:18:15.281Z,101226.88
2023-03-01T03:20:47.304Z,101224.25
2023-03-01T03:23:15.634Z,101215.47
2023-03-01T03:25:44.345Z,101212.03
2023-03-01T03:28:13.029Z,101211.19
2023-03-01T03:30:42.894Z,101210.28
2023-03-01T03:33:15.354Z,101213.84
2023-03-01T03:35:47.595Z,101199.81
2023-03-01T03:38:18.387Z,101195.47
2023-03-01T03:41:03.670Z,101187.59
2023-03-01T03:43:36.084Z,101177.09
2023-03-01T03:46:11.769Z,101158.69
2023-03-01T03:48:45.617Z,101168.31
2023-03-01T03:51:19.651Z,101163.09
2023-03-01T03:53:47.803Z,101166.56
2023-03-01T03:56:16.382Z,101160.44
2023-03-01T03:58:45.156Z,101161.38
2023-03-01T04:01:13.304Z,101163.16
2023-03-01T04:03:43.137Z,101171.06
2023-03-01T04:06:11.342Z,101174.59
2023-03-01T04:08:39.541Z,101152.66
2023-03-01T04:11:26.782Z,101139.47
2023-03-01T04:14:00.430Z,101132.38
2023-03-01T04:16:38.226Z,101115.72
2023-03-01T04:19:07.981Z,101115.69
2023-03-01T04:21:37.490Z,101107.84
2023-03-01T04:24:06.380Z,101117.44
2023-03-01T04:26:35.670Z,101125.34
2023-03-01T04:29:03.953Z,101120.09
2023-03-01T04:31:35.965Z,101132.31
2023-03-01T04:34:04.657Z,101139.31
2023-03-01T04:36:33.118Z,101132.28
2023-03-01T04:39:13.649Z,101139.22
2023-03-01T04:41:42.173Z,101126.00
2023-03-01T04:44:10.506Z,101126.75
2023-03-01T04:46:39.326Z,101128.38
2023-03-01T04:49:07.845Z,101115.00
2023-03-01T04:51:37.425Z,101113.44
2023-03-01T04:54:13.066Z,101115.16
2023-03-01T04:56:41.731Z,101107.97
2023-03-01T04:59:11.332Z,101110.13
2023-03-01T05:01:40.142Z,101101.59
2023-03-01T05:04:08.835Z,101099.22
2023-03-01T05:06:37.415Z,101107.13
2023-03-01T05:09:08.574Z,101115.56
2023-03-01T05:11:37.292Z,101130.41
2023-03-01T05:14:09.436Z,101126.06
2023-03-01T05:16:38.413Z,101134.09
2023-03-01T05:19:13.109Z,101137.88
2023-03-01T05:22:01.306Z,101140.03
2023-03-01T05:24:30.980Z,101152.09
2023-03-01T05:27:02.286Z,101161.09
2023-03-01T05:29:32.752Z,101160.63
2023-03-01T05:32:02.393Z,101152.28
2023-03-01T05:34:32.962Z,101133.25
2023-03-01T05:37:01.561Z,101146.38
2023-03-01T05:39:33.656Z,101146.97
2023-03-01T05:42:03.981Z,101149.00
2023-03-01T05:44:32.191Z,101138.75
2023-03-01T05:47:00.396Z,101138.91
2023-03-01T05:49:29.031Z,101129.41
2023-03-01T05:51:58.843Z,101134.81
2023-03-01T05:54:26.958Z,101140.88
2023-03-01T05:56:58.370Z,101145.25
2023-03-01T05:59:26.779Z,101160.22
2023-03-01T06:01:57.123Z,101159.28
2023-03-01T06:04:25.198Z,101152.03
2023-03-01T06:06:57.673Z,101153.69
2023-03-01T06:09:27.399Z,101156.31
2023-03-01T06:11:55.649Z,101154.50
2023-03-01T06:14:23.678Z,101158.78
2023-03-01T06:16:51.963Z,101151.41
2023-03-01T06:19:20.620Z,101158.47
2023-03-01T06:21:48.693Z,101151.19
2023-03-01T06:24:16.778Z,101163.25
2023-03-01T06:26:45.234Z,101155.94
2023-03-01T06:29:13.310Z,101157.41
2023-03-01T06:31:41.722Z,101156.41
2023-03-01T06:34:09.708Z,101150.88
2023-03-01T06:36:43.445Z,101156.81
2023-03-01T06:39:18.143Z,101146.03
2023-03-01T06:41:46.333Z,101145.78
2023-03-01T06:44:15.122Z,101132.34
2023-03-01T06:46:46.111Z,101131.94
2023-03-01T06:49:17.742Z,101127.22
2023-03-01T06:51:46.346Z,101112.03
2023-03-01T06:54:14.857Z,101104.53
2023-03-01T06:56:46.134Z,101104.56
2023-03-01T06:59:16.949Z,101107.84
2023-03-01T07:01:45.541Z,101121.84
2023-03-01T07:04:16.001Z,101116.16
2023-03-01T07:06:44.331Z,101116.59
2023-03-01T07:09:12.529Z,101110.97
2023-03-01T07:11:41.110Z,101097.56
2023-03-01T07:14:17.030Z,101103.50
2023-03-01T07:16:46.796Z,101094.28
2023-03-01T07:19:14.698Z,101096.56
2023-03-01T07:21:44.254Z,101088.31
2023-03-01T07:24:12.724Z,101095.09
2023-03-01T07:26:51.287Z,101087.88
2023-03-01T07:29:19.635Z,101079.75
2023-03-01T07:31:47.732Z,101078.91
2023-03-01T07:34:15.754Z,101091.09
2023-03-01T07:36:46.748Z,101094.19
2023-03-01T07:39:15.106Z,101085.06
2023-03-01T07:41:43.246Z,101080.47
2023-03-01T07:44:11.218Z,101082.84
2023-03-01T07:46:40.746Z,101079.19
2023-03-01T07:49:09.287Z,101076.03
2023-03-01T07:51:38.327Z,101073.84
2023-03-01T07:54:09.923Z,101066.72
2023-03-01T07:56:38.673Z,101070.16
2023-03-01T07:59:08.952Z,101065.59
2023-03-01T08:01:37.211Z,101072.72
2023-03-01T08:04:08.374Z,101058.38
2023-03-01T08:06:38.840Z,101063.28
2023-03-01T08:09:08.107Z,101050.72
2023-03-01T08:11:39.031Z,101055.97
2023-03-01T08:14:27.558Z,101050.97
2023-03-01T08:16:56.637Z,101049.97
2023-03-01T08:19:29.802Z,101044.47
2023-03-01T08:21:59.491Z,101044.50
2023-03-01T08:24:32.230Z,101043.75
2023-03-01T08:27:00.816Z,101032.94
2023-03-01T08:29:29.377Z,101035.66
2023-03-01T08:32:00.622Z,101035.91
2023-03-01T08:34:29.628Z,101023.16
2023-03-01T08:37:16.461Z,101011.84
2023-03-01T08:39:44.741Z,101007.03
2023-03-01T08:42:12.977Z,101006.84
2023-03-01T08:44:47.058Z,101002.75
2023-03-01T08:47:15.823Z,101005.03
2023-03-01T08:49:44.148Z,100990.69
2023-03-01T08:52:13.419Z,100992.13
2023-03-01T08:54:41.528Z,100981.84
2023-03-01T08:57:14.108Z,100989.00
2023-03-01T08:59:42.801Z,100982.47
2023-03-01T09:02:16.787Z,100980.84
2023-03-01T09:04:45.683Z,100970.19
2023-03-01T09:07:17.844Z,100970.53
2023-03-01T09:09:48.108Z,100971.13
2023-03-01T09:12:16.635Z,100965.91
2023-03-01T09:14:45.240Z,100962.19
2023-03-01T09:17:13.755Z,100966.50
2023-03-01T09:19:42.138Z,100965.34
2023-03-01T09:22:10.247Z,100952.94
2023-03-01T09:24:42.258Z,100953.28
2023-03-01T09:27:11.376Z,100945.09
2023-03-01T09:29:41.106Z,100940.63
2023-03-01T09:32:18.963Z,100933.63
2023-03-01T09:35:05.465Z,100937.63
2023-03-01T09:37:35.061Z,100935.09
2023-03-01T09:40:05.408Z,100929.34
2023-03-01T09:42:38.387Z,100932.28
2023-03-01T09:45:13.716Z,100935.25
2023-03-01T09:47:44.323Z,100948.75
2023-03-01T09:50:22.475Z,100942.19
2023-03-01T09:53:06.039Z,100934.81
2023-03-01T09:55:40.281Z,100936.06
2023-03-01T09:58:17.492Z,100928.88
2023-03-01T10:00:49.231Z,100922.06
2023-03-01T10:03:27.866Z,100923.94
2023-03-01T10:06:05.067Z,100927.78
2023-03-01T10:08:58.528Z,100917.78
2023-03-01T10:11:54.265Z,100919.03
2023-03-01T10:14:30.555Z,100915.97
2023-03-01T10:17:34.443Z,100904.22
2023-03-01T10:20:20.388Z,100912.63
2023-03-01T10:22:53.725Z,100913.00
2023-03-01T10:25:42.561Z,100907.47
2023-03-01T10:28:33.152Z,100917.03
2023-03-01T10:31:05.937Z,100914.28
2023-03-01T10:33:38.663Z,100919.69
2023-03-01T10:36:07.500Z,100912.31
2023-03-01T10:38:55.943Z,100904.50
2023-03-01T10:41:26.783Z,100910.53
2023-03-01T10:43:58.102Z,100916.84
2023-03-01T10:46:37.773Z,100912.63
2023-03-01T10:49:16.621Z,100897.00
2023-03-01T10:51:47.674Z,100896.72
2023-03-01T10:54:21.839Z,100891.72
2023-03-01T10:56:54.340Z,100889.31
2023-03-01T10:59:42.681Z,100894.59
2023-03-01T11:02:27.980Z,100890.72
2023-03-01T11:05:32.944Z,100897.16
2023-03-01T11:08:04.491Z,100886.47
2023-03-01T11:10:36.533Z,100877.47
2023-03-01T11:13:20.336Z,100885.75
2023-03-01T11:16:02.500Z,100882.91
2023-03-01T11:18:46.299Z,100888.69
2023-03-01T11:21:17.308Z,100890.19
2023-03-01T11:23:47.252Z,100901.53
2023-03-01T11:26:16.880Z,100893.88
2023-03-01T11:28:52.481Z,100899.38
2023-03-01T11:31:21.283Z,100892.09
2023-03-01T11:34:46.147Z,100886.19
2023-03-01T11:37:36.791Z,100889.06
2023-03-01T11:40:19.442Z,100891.31
2023-03-01T11:43:26.766Z,100901.28
2023-03-01T11:46:35.176Z,100900.53
2023-03-01T11:49:28.522Z,100893.44
2023-03-01T11:52:12.009Z,100887.78
2023-03-01T11:55:15.711Z,100902.78
2023-03-01T11:58:08.819Z,100890.78
2023-03-01T12:01:09.450Z,100897.41
2023-03-01T12:03:53.152Z,100890.63
2023-03-01T12:06:33.282Z,100888.50
2023-03-01T12:09:33.526Z,100894.38
2023-03-01T12:12:54.009Z,100899.59
2023-03-01T12:15:32.315Z,100904.22
2023-03-01T12:18:44.754Z,100908.13
2023-03-01T12:21:31.595Z,100902.94
2023-03-01T12:24:30.478Z,100910.81
2023-03-01T12:27:35.419Z,100923.91
2023-03-01T12:30:35.291Z,100916.91
2023-03-01T12:33:06.707Z,100924.63
2023-03-01T12:35:45.086Z,100934.47
2023-03-01T12:38:27.264Z,100926.81
2023-03-01T12:41:20.653Z,100940.72
2023-03-01T12:44:07.400Z,100946.97
2023-03-01T12:46:54.017Z,100953.72
2023-03-01T12:49:36.218Z,100938.72
2023-03-01T12:52:22.098Z,100948.59
2023-03-01T12:54:52.900Z,100940.31
2023-03-01T12:57:44.547Z,100955.69
2023-03-01T13:00:34.605Z,100961.44
2023-03-01T13:03:40.565Z,100969.88
2023-03-01T13:06:32.296Z,100964.97
2023-03-01T13:09:41.183Z,100969.88
2023-03-01T13:13:00.034Z,100967.44
2023-03-01T13:15:39.271Z,100973.00
2023-03-01T13:18:17.542Z,100971.22
2023-03-01T13:20:45.814Z,100970.88
2023-03-01T13:23:29.043Z,100975.88
2023-03-01T13:26:00.711Z,100971.31
2023-03-01T13:28:42.572Z,100963.97
2023-03-01T13:31:16.759Z,100962.78
2023-03-01T13:33:54.977Z,100964.38
2023-03-01T13:36:30.655Z,100967.00
2023-03-01T13:39:00.437Z,100959.00
2023-03-01T13:41:44.880Z,100962.53
2023-03-01T13:44:28.551Z,100968.13
2023-03-01T13:47:16.664Z,100976.19
2023-03-01T13:50:04.198Z,100969.25
2023-03-01T13:52:41.918Z,100968.13
2023-03-01T13:55:20.703Z,100968.06
2023-03-01T13:57:54.984Z,100969.13
2023-03-01T14:00:36.842Z,100980.56
2023-03-01T14:03:21.710Z,100979.84
2023-03-01T14:06:17.758Z,100986.41
2023-03-01T14:08:49.896Z,100985.56
2023-03-01T14:11:29.164Z,100983.81
2023-03-01T14:14:29.119Z,100998.28
2023-03-01T14:17:09.248Z,101000.72
2023-03-01T14:19:37.625Z,101001.78
2023-03-01T14:22:20.832Z,101009.06
2023-03-01T14:24:57.907Z,101006.41
2023-03-01T14:27:42.824Z,101001.34
2023-03-01T14:30:21.887Z,101013.38
2023-03-01T14:33:08.079Z,101008.91
2023-03-01T14:35:37.870Z,101016.19
2023-03-01T14:38:06.461Z,101008.44
2023-03-01T14:40:37.885Z,101008.84
2023-03-01T14:43:13.885Z,101021.41
2023-03-01T14:45:48.836Z,101019.78
2023-03-01T14:48:17.776Z,101031.69
2023-03-01T14:50:47.248Z,101031.94
2023-03-01T14:53:26.275Z,101035.56
2023-03-01T14:56:05.974Z,101027.34
2023-03-01T14:58:37.878Z,101044.91
2023-03-01T15:01:06.482Z,101045.22
2023-03-01T15:03:42.441Z,101035.56
2023-03-01T15:06:11.677Z,101036.09
2023-03-01T15:08:44.382Z,101043.00
2023-03-01T15:11:19.001Z,101044.59
2023-03-01T15:13:48.615Z,101044.44
2023-03-01T15:16:26.829Z,101041.72
2023-03-01T15:19:07.541Z,101047.03
2023-03-01T15:21:38.666Z,101058.50
2023-03-01T15:24:20.913Z,101056.09
2023-03-01T15:27:03.640Z,101054.84
2023-03-01T15:29:34.827Z,101060.91
2023-03-01T15:32:08.252Z,101063.41
2023-03-01T15:34:39.195Z,101056.44
2023-03-01T15:38:01.921Z,101060.75
2023-03-01T15:40:34.349Z,101071.31
2023-03-01T15:43:05.536Z,101067.78
2023-03-01T15:45:35.516Z,101076.63
2023-03-01T15:48:27.787Z,101073.84
2023-03-01T15:50:58.339Z,101080.03
2023-03-01T15:53:28.973Z,101074.56
2023-03-01T15:55:57.250Z,101075.41
2023-03-01T15:58:27.562Z,101079.16
2023-03-01T16:01:01.242Z,101079.25
2023-03-01T16:03:30.374Z,101075.13
2023-03-01T16:06:02.522Z,101083.72
2023-03-01T16:08:31.065Z,101089.00
2023-03-01T16:10:59.550Z,101090.75
2023-03-01T16:13:29.603Z,101075.91
2023-03-01T16:16:05.564Z,101082.50
2023-03-01T16:18:34.481Z,101092.44
2023-03-01T16:21:06.864Z,101094.38
2023-03-01T16:23:35.842Z,101096.31
2023-03-01T16:26:04.653Z,101085.00
2023-03-01T16:28:33.204Z,101092.09
2023-03-01T16:31:02.985Z,101087.94
2023-03-01T16:33:37.566Z,101086.25
2023-03-01T16:36:11.754Z,101089.94
2023-03-01T16:38:40.038Z,101083.84
2023-03-01T16:41:16.217Z,101083.91
2023-03-01T16:43:44.890Z,101083.06
2023-03-01T16:46:15.521Z,101079.56
2023-03-01T16:48:44.096Z,101085.88
2023-03-01T16:51:15.300Z,101082.50
2023-03-01T16:53:48.482Z,101084.22
2023-03-01T16:56:20.433Z,101085.25
2023-03-01T16:58:49.513Z,101083.53
2023-03-01T17:01:25.898Z,101084.47
2023-03-01T17:03:54.859Z,101091.63
2023-03-01T17:06:24.924Z,101086.34
2023-03-01T17:08:54.002Z,101081.16
2023-03-01T17:11:25.184Z,101087.41
2023-03-01T17:13:57.141Z,101088.44
2023-03-01T17:16:26.088Z,101090.13
2023-03-01T17:18:54.476Z,101083.97
2023-03-01T17:21:22.487Z,101085.91
2023-03-01T17:23:50.726Z,101093.16
2023-03-01T17:26:20.313Z,101088.78
2023-03-01T17:28:52.599Z,101091.41
2023-03-01T17:31:21.609Z,101089.63
2023-03-01T17:33:50.493Z,101085.28
2023-03-01T17:36:19.297Z,101090.59
2023-03-01T17:38:47.644Z,101097.59
2023-03-01T17:41:19.165Z,101093.16
2023-03-01T17:43:48.212Z,101096.66
2023-03-01T17:46:17.379Z,101090.28
2023-03-01T17:48:50.029Z,101097.09
2023-03-01T17:51:43.816Z,101080.00
2023-03-01T17:54:12.381Z,101090.41
2023-03-01T17:56:42.707Z,101099.84
2023-03-01T17:59:18.108Z,101095.19
2023-03-01T18:01:47.074Z,101098.59
2023-03-01T18:04:15.603Z,101096.66
2023-03-01T18:06:46.747Z,101100.94
2023-03-01T18:09:15.328Z,101104.34
2023-03-01T18:11:46.666Z,101094.38
2023-03-01T18:14:16.476Z,101101.25
2023-03-01T18:16:44.403Z,101107.59
2023-03-01T18:19:13.520Z,101110.16
2023-03-01T18:21:44.343Z,101102.19
2023-03-01T18:24:13.012Z,101113.69
2023-03-01T18:26:42.562Z,101113.81
2023-03-01T18:29:10.975Z,101109.38
2023-03-01T18:31:45.916Z,101113.03
2023-03-01T18:34:19.272Z,101113.91
2023-03-01T18:37:10.225Z,101126.34
2023-03-01T18:39:39.081Z,101125.44
2023-03-01T18:42:09.000Z,101129.81
2023-03-01T18:44:38.949Z,101129.81
2023-03-01T18:47:07.046Z,101143.91
2023-03-01T18:49:38.139Z,101135.13
2023-03-01T18:52:06.336Z,101140.44
2023-03-01T18:54:36.592Z,101136.94
2023-03-01T18:57:05.653Z,101132.63
2023-03-01T18:59:38.775Z,101144.59
2023-03-01T19:02:07.250Z,101143.75
2023-03-01T19:04:35.296Z,101145.66
2023-03-01T19:07:03.912Z,101146.00
2023-03-01T19:09:37.180Z,101128.34
2023-03-01T19:12:06.726Z,101142.41
2023-03-01T19:14:35.481Z,101132.88
2023-03-01T19:17:05.241Z,101131.03
2023-03-01T19:19:33.749Z,101132.81
2023-03-01T19:22:06.208Z,101132.81
2023-03-01T19:24:35.806Z,101130.31
2023-03-01T19:27:03.775Z,101137.34
2023-03-01T19:29:36.880Z,101149.75
2023-03-01T19:32:05.364Z,101143.66
2023-03-01T19:34:34.059Z,101152.63
2023-03-01T19:37:05.234Z,101146.47
2023-03-01T19:39:37.483Z,101150.81
2023-03-01T19:42:08.281Z,101152.56
2023-03-01T19:44:40.520Z,101155.22
2023-03-01T19:47:08.801Z,101159.66
2023-03-01T19:49:38.497Z,101157.94
2023-03-01T19:52:07.231Z,101165.81
2023-03-01T19:54:36.520Z,101160.53
2023-03-01T19:57:06.031Z,101167.63
2023-03-01T19:59:34.791Z,101165.88
2023-03-01T20:02:04.085Z,101168.59
2023-03-01T20:04:33.733Z,101168.47
2023-03-01T20:07:01.998Z,101172.88
2023-03-01T20:09:30.822Z,101175.50
2023-03-01T20:11:59.442Z,101166.69
2023-03-01T20:14:27.864Z,101170.28
2023-03-01T20:16:56.377Z,101164.03
2023-03-01T20:19:25.198Z,101171.00
2023-03-01T20:21:54.579Z,101169.16
2023-03-01T20:24:24.987Z,101172.75
2023-03-01T20:26:53.954Z,101171.91
2023-03-01T20:29:22.328Z,101168.47
2023-03-01T20:31:50.783Z,101176.34
2023-03-01T20:34:19.163Z,101177.44
2023-03-01T20:36:48.147Z,101171.25
2023-03-01T20:39:16.691Z,101177.44
2023-03-01T20:41:46.844Z,101173.00
2023-03-01T20:44:20.873Z,101170.41
2023-03-01T20:46:50.015Z,101169.63
2023-03-01T20:49:22.136Z,101168.63
2023-03-01T20:51:50.344Z,101172.13
2023-03-01T20:54:18.704Z,101171.28
2023-03-01T20:56:48.141Z,101175.72
2023-03-01T20:59:16.783Z,101173.91
2023-03-01T21:01:45.335Z,101169.56
2023-03-01T21:04:14.642Z,101164.31
2023-03-01T21:06:46.123Z,101169.63
2023-03-01T21:09:14.997Z,101174.03
2023-03-01T21:11:45.681Z,101168.84
2023-03-01T21:14:17.221Z,101168.84
2023-03-01T21:16:47.277Z,101167.06
2023-03-01T21:19:19.294Z,101164.38
2023-03-01T21:21:50.401Z,101158.25
2023-03-01T21:24:23.686Z,101164.56
2023-03-01T21:26:52.962Z,101163.66
2023-03-01T21:29:21.390Z,101159.31
2023-03-01T21:31:52.459Z,101162.06
2023-03-01T21:34:20.536Z,101168.28
2023-03-01T21:36:48.400Z,101164.84
2023-03-01T21:39:17.694Z,101168.41
2023-03-01T21:41:46.091Z,101153.50
2023-03-01T21:44:14.557Z,101165.06
2023-03-01T21:46:42.911Z,101158.13
2023-03-01T21:49:11.452Z,101160.81
2023-03-01T21:51:43.026Z,101163.56
2023-03-01T21:54:13.688Z,101163.63
2023-03-01T21:56:44.015Z,101164.44
2023-03-01T21:59:20.278Z,101170.53
2023-03-01T22:01:49.435Z,101175.88
2023-03-01T22:04:18.492Z,101166.06
2023-03-01T22:06:47.532Z,101180.19
2023-03-01T22:09:23.618Z,101177.47
2023-03-01T22:12:02.875Z,101164.31
2023-03-01T22:14:32.851Z,101163.44
2023-03-01T22:17:03.428Z,101173.22
2023-03-01T22:19:33.617Z,101172.38
2023-03-01T22:22:02.252Z,101169.72
2023-03-01T22:24:33.400Z,101179.53
2023-03-01T22:27:01.928Z,101171.66
2023-03-01T22:29:33.300Z,101167.22
2023-03-01T22:32:02.059Z,101174.31
2023-03-01T22:34:31.245Z,101171.56
2023-03-01T22:37:02.963Z,101167.97
2023-03-01T22:39:31.258Z,101174.16
2023-03-01T22:42:00.972Z,101181.25
2023-03-01T22:44:29.919Z,101175.09
2023-03-01T22:46:59.078Z,101175.09
2023-03-01T22:49:27.590Z,101169.94
2023-03-01T22:52:01.969Z,101176.09
2023-03-01T22:54:32.709Z,101176.16
2023-03-01T22:57:04.398Z,101162.97
2023-03-01T22:59:34.067Z,101163.91
2023-03-01T23:02:03.760Z,101166.56
2023-03-01T23:04:31.922Z,101164.91
2023-03-01T23:07:00.017Z,101158.81
2023-03-01T23:09:34.631Z,101159.81
2023-03-01T23:12:07.044Z,101146.59
2023-03-01T23:14:38.480Z,101144.16
2023-03-01T23:17:08.861Z,101143.50
2023-03-01T23:19:37.221Z,101130.53
2023-03-01T23:22:06.040Z,101132.47
2023-03-01T23:24:35.237Z,101131.88
2023-03-01T23:27:09.942Z,101127.75
2023-03-01T23:29:39.201Z,101140.41
2023-03-01T23:32:11.629Z,101146.69
2023-03-01T23:34:44.361Z,101141.41
2023-03-01T23:37:12.700Z,101130.91
2023-03-01T23:39:41.128Z,101137.22
2023-03-01T23:42:09.380Z,101136.41
2023-03-01T23:44:39.203Z,101133.88
2023-03-01T23:47:07.438Z,101132.16
2023-03-01T23:49:35.353Z,101133.88
2023-03-01T23:52:05.534Z,101123.34
2023-03-01T23:54:34.915Z,101129.38
2023-03-01T23:57:03.343Z,101130.31
2023-03-01T23:59:31.348Z,101129.56
